createdAt,value
2019-03-26T00:01:12.928Z,1.53
2019-03-26T00:03:39.392Z,1.10
2019-03-26T00:06:05.343Z,1.07
2019-03-26T00:08:31.284Z,0.90
2019-03-26T00:10:57.245Z,1.10
2019-03-26T00:13:23.284Z,1.00
2019-03-26T00:15:49.435Z,0.80
2019-03-26T00:18:15.458Z,0.93
2019-03-26T00:20:41.521Z,0.80
2019-03-26T00:23:07.462Z,1.00
2019-03-26T00:25:33.416Z,1.23
2019-03-26T00:27:59.349Z,1.50
2019-03-26T00:30:25.298Z,1.67
2019-03-26T00:32:51.228Z,0.90
2019-03-26T00:35:17.199Z,0.87
2019-03-26T00:37:43.124Z,0.93
2019-03-26T00:40:09.106Z,1.00
2019-03-26T00:42:35.150Z,0.77
2019-03-26T00:45:01.199Z,1.07
2019-03-26T00:47:27.169Z,0.70
2019-03-26T00:49:53.161Z,0.83
2019-03-26T00:52:19.185Z,0.93
2019-03-26T00:54:45.129Z,0.90
2019-03-26T00:57:11.068Z,1.30
2019-03-26T00:59:37.002Z,0.93
2019-03-26T01:02:02.946Z,0.90
2019-03-26T01:04:33.082Z,1.43
2019-03-26T01:06:56.742Z,0.80
2019-03-26T01:09:22.695Z,0.90
2019-03-26T01:11:48.653Z,1.30
2019-03-26T01:14:14.590Z,0.60
2019-03-26T01:16:40.545Z,0.83
2019-03-26T01:19:06.496Z,0.87
2019-03-26T01:21:32.435Z,0.90
2019-03-26T01:23:58.405Z,0.87
2019-03-26T01:26:24.448Z,1.07
2019-03-26T01:28:50.397Z,1.27
2019-03-26T01:31:16.345Z,0.50
2019-03-26T01:33:42.305Z,0.53
2019-03-26T01:36:08.334Z,1.00
2019-03-26T01:38:34.307Z,0.80
2019-03-26T01:41:00.244Z,0.60
2019-03-26T01:43:26.316Z,0.77
2019-03-26T01:45:52.247Z,0.50
2019-03-26T01:48:18.196Z,0.90
2019-03-26T01:50:44.145Z,0.73
2019-03-26T01:53:10.093Z,0.83
2019-03-26T01:55:36.036Z,1.03
2019-03-26T01:58:02.001Z,1.00
2019-03-26T02:00:27.941Z,0.77
2019-03-26T02:02:53.941Z,1.40
2019-03-26T02:05:19.957Z,0.93
2019-03-26T02:07:45.888Z,1.10
2019-03-26T02:10:11.833Z,1.23
2019-03-26T02:12:37.768Z,1.07
2019-03-26T02:15:03.735Z,0.50
2019-03-26T02:17:29.670Z,0.93
2019-03-26T02:19:55.609Z,0.73
2019-03-26T02:22:21.580Z,0.77
2019-03-26T02:24:47.534Z,0.60
2019-03-26T02:27:13.512Z,0.83
2019-03-26T02:29:39.440Z,0.50
2019-03-26T02:32:05.407Z,0.60
2019-03-26T02:34:31.359Z,0.90
2019-03-26T02:36:57.288Z,1.13
2019-03-26T02:39:23.243Z,0.60
2019-03-26T02:41:49.186Z,1.17
2019-03-26T02:44:15.140Z,0.70
2019-03-26T02:46:41.081Z,0.93
2019-03-26T02:49:07.009Z,1.00
2019-03-26T02:51:32.977Z,1.37
2019-03-26T02:53:58.930Z,0.63
2019-03-26T02:56:24.892Z,1.13
2019-03-26T02:58:50.933Z,0.70
2019-03-26T03:01:16.884Z,1.17
2019-03-26T03:03:42.916Z,0.67
2019-03-26T03:06:08.848Z,0.60
2019-03-26T03:08:34.804Z,0.97
2019-03-26T03:11:00.739Z,0.70
2019-03-26T03:13:26.676Z,0.60
2019-03-26T03:15:52.621Z,0.60
2019-03-26T03:18:38.453Z,0.60
2019-03-26T03:21:04.457Z,0.80
2019-03-26T03:23:30.390Z,0.77
2019-03-26T03:25:56.356Z,0.60
2019-03-26T03:28:22.312Z,0.70
2019-03-26T03:30:48.233Z,0.70
2019-03-26T03:33:14.281Z,0.80
2019-03-26T03:35:52.134Z,0.60
2019-03-26T03:38:08.077Z,0.63
2019-03-26T03:40:34.027Z,0.73
2019-03-26T03:42:59.960Z,0.70
2019-03-26T03:45:46.875Z,0.77
2019-03-26T03:48:12.819Z,0.90
2019-03-26T03:50:38.751Z,0.73
2019-03-26T03:53:05.312Z,0.77
2019-03-26T03:55:31.244Z,0.80
2019-03-26T03:57:57.209Z,0.73
2019-03-26T04:00:23.144Z,0.93
2019-03-26T04:02:49.104Z,0.77
2019-03-26T04:05:15.169Z,0.83
2019-03-26T04:07:41.117Z,1.03
2019-03-26T04:10:07.077Z,0.70
2019-03-26T04:12:33.036Z,0.70
2019-03-26T04:14:59.077Z,1.17
2019-03-26T04:17:25.040Z,0.80
2019-03-26T04:19:50.982Z,0.80
2019-03-26T04:22:16.984Z,0.70
2019-03-26T04:24:42.915Z,1.07
2019-03-26T04:27:08.865Z,0.87
2019-03-26T04:29:34.802Z,0.83
2019-03-26T04:32:00.768Z,0.80
2019-03-26T04:34:26.804Z,0.63
2019-03-26T04:36:52.755Z,1.03
2019-03-26T04:39:18.688Z,1.37
2019-03-26T04:41:44.634Z,0.60
2019-03-26T04:44:10.584Z,0.60
2019-03-26T04:46:36.532Z,0.60
2019-03-26T04:49:02.492Z,0.83
2019-03-26T04:51:28.422Z,0.50
2019-03-26T04:53:54.383Z,1.17
2019-03-26T04:56:20.326Z,0.90
2019-03-26T04:58:46.261Z,0.70
2019-03-26T05:01:12.197Z,1.13
2019-03-26T05:03:38.500Z,0.60
2019-03-26T05:06:04.625Z,0.87
2019-03-26T05:08:30.589Z,0.73
2019-03-26T05:10:56.515Z,0.80
2019-03-26T05:13:22.449Z,0.70
2019-03-26T05:15:48.413Z,0.60
2019-03-26T05:18:14.341Z,0.80
2019-03-26T05:20:40.295Z,0.90
2019-03-26T05:23:06.851Z,1.30
2019-03-26T05:25:32.807Z,0.73
2019-03-26T05:27:58.741Z,1.07
2019-03-26T05:30:24.711Z,0.60
2019-03-26T05:32:50.643Z,1.30
2019-03-26T05:35:16.675Z,1.27
2019-03-26T05:37:42.705Z,1.40
2019-03-26T05:40:08.664Z,1.40
2019-03-26T05:42:34.630Z,2.50
2019-03-26T05:45:00.583Z,2.20
2019-03-26T05:47:26.527Z,2.30
2019-03-26T05:49:52.477Z,3.87
2019-03-26T05:52:18.427Z,3.13
2019-03-26T05:54:44.384Z,2.43
2019-03-26T05:57:10.319Z,1.67
2019-03-26T05:59:36.245Z,2.47
2019-03-26T06:02:13.372Z,2.83
2019-03-26T06:04:30.076Z,2.23
2019-03-26T06:07:04.876Z,2.73
2019-03-26T06:09:23.896Z,3.00
2019-03-26T06:11:49.869Z,2.03
2019-03-26T06:14:15.796Z,2.63
2019-03-26T06:16:41.763Z,2.60
2019-03-26T06:19:07.711Z,3.57
2019-03-26T06:21:33.661Z,1.87
2019-03-26T06:23:59.612Z,2.50
2019-03-26T06:26:25.601Z,1.50
2019-03-26T06:28:51.554Z,2.20
2019-03-26T06:31:17.509Z,3.63
2019-03-26T06:33:43.468Z,2.40
2019-03-26T06:36:09.426Z,4.40
2019-03-26T06:38:35.356Z,2.47
2019-03-26T06:41:01.327Z,3.03
2019-03-26T06:43:27.281Z,2.17
2019-03-26T06:45:53.224Z,1.60
2019-03-26T06:48:19.174Z,2.50
2019-03-26T06:50:45.113Z,2.33
2019-03-26T06:53:11.057Z,1.50
2019-03-26T06:55:36.992Z,2.13
2019-03-26T06:58:02.984Z,1.70
2019-03-26T07:00:28.926Z,1.97
2019-03-26T07:02:54.961Z,2.30
2019-03-26T07:05:20.888Z,1.60
2019-03-26T07:07:46.841Z,2.03
2019-03-26T07:10:12.784Z,1.23
2019-03-26T07:12:38.735Z,2.70
2019-03-26T07:15:04.669Z,1.77
2019-03-26T07:17:30.634Z,1.67
2019-03-26T07:19:56.588Z,1.60
2019-03-26T07:22:22.520Z,2.00
2019-03-26T07:24:48.489Z,2.27
2019-03-26T07:27:14.452Z,1.73
2019-03-26T07:29:40.404Z,1.47
2019-03-26T07:32:06.356Z,1.83
2019-03-26T07:34:32.310Z,1.23
2019-03-26T07:36:58.272Z,1.53
2019-03-26T07:39:24.227Z,1.33
2019-03-26T07:41:50.155Z,1.80
2019-03-26T07:44:16.120Z,1.33
2019-03-26T07:46:42.073Z,0.93
2019-03-26T07:49:08.026Z,1.87
2019-03-26T07:51:33.970Z,1.60
2019-03-26T07:53:59.896Z,1.10
2019-03-26T07:56:25.844Z,1.47
2019-03-26T07:58:51.807Z,1.07
2019-03-26T08:01:17.854Z,1.37
2019-03-26T08:03:44.111Z,1.00
2019-03-26T08:06:10.138Z,1.50
2019-03-26T08:08:36.104Z,1.57
2019-03-26T08:11:02.167Z,1.13
2019-03-26T08:13:28.253Z,1.30
2019-03-26T08:15:54.297Z,1.63
2019-03-26T08:18:20.231Z,0.97
2019-03-26T08:20:46.168Z,1.40
2019-03-26T08:23:14.121Z,1.27
2019-03-26T08:25:40.088Z,1.43
2019-03-26T08:28:06.078Z,1.80
2019-03-26T08:30:32.028Z,1.17
2019-03-26T08:32:57.990Z,1.47
2019-03-26T08:35:23.906Z,1.13
2019-03-26T08:37:49.846Z,1.23
2019-03-26T08:40:15.774Z,2.00
2019-03-26T08:42:41.744Z,1.37
2019-03-26T08:45:07.795Z,1.30
2019-03-26T08:47:33.732Z,1.73
2019-03-26T08:49:59.669Z,1.50
2019-03-26T08:52:25.730Z,1.37
2019-03-26T08:54:51.676Z,1.57
2019-03-26T08:57:17.624Z,1.63
2019-03-26T08:59:43.571Z,1.17
2019-03-26T09:02:09.566Z,0.90
2019-03-26T09:04:35.514Z,0.97
2019-03-26T09:07:01.502Z,1.10
2019-03-26T09:09:27.460Z,0.97
2019-03-26T09:11:53.424Z,1.10
2019-03-26T09:14:19.377Z,1.07
2019-03-26T09:16:45.328Z,1.03
2019-03-26T09:19:11.304Z,1.23
2019-03-26T09:21:37.251Z,1.47
2019-03-26T09:24:03.203Z,1.03
2019-03-26T09:26:29.168Z,1.00
2019-03-26T09:28:55.128Z,1.00
2019-03-26T09:31:21.173Z,1.43
2019-03-26T09:33:49.108Z,1.33
2019-03-26T09:36:15.082Z,0.90
2019-03-26T09:38:41.112Z,1.00
2019-03-26T09:41:07.074Z,1.50
2019-03-26T09:43:33.020Z,0.90
2019-03-26T09:45:58.966Z,1.40
2019-03-26T09:48:24.902Z,1.00
2019-03-26T09:50:50.872Z,1.50
2019-03-26T09:53:16.807Z,1.07
2019-03-26T09:55:42.786Z,1.00
2019-03-26T09:58:08.832Z,1.40
2019-03-26T10:00:34.805Z,1.17
2019-03-26T10:03:00.926Z,1.17
2019-03-26T10:05:26.884Z,0.90
2019-03-26T10:07:52.845Z,0.90
2019-03-26T10:10:18.795Z,1.10
2019-03-26T10:12:44.768Z,1.00
2019-03-26T10:15:10.798Z,1.00
2019-03-26T10:17:36.784Z,1.23
2019-03-26T10:20:02.711Z,1.70
2019-03-26T10:22:28.686Z,1.33
2019-03-26T10:24:54.644Z,0.70
2019-03-26T10:27:20.626Z,1.60
2019-03-26T10:29:46.566Z,0.80
2019-03-26T10:32:12.632Z,1.30
2019-03-26T10:34:38.574Z,1.03
2019-03-26T10:37:04.513Z,0.93
2019-03-26T10:39:30.479Z,0.93
2019-03-26T10:41:56.502Z,1.17
2019-03-26T10:44:22.480Z,1.40
2019-03-26T10:46:48.458Z,0.93
2019-03-26T10:49:14.544Z,0.93
2019-03-26T10:51:40.509Z,1.00
2019-03-26T10:54:06.479Z,0.80
2019-03-26T10:56:32.726Z,0.80
2019-03-26T10:58:58.895Z,1.10
2019-03-26T11:01:24.844Z,1.73
2019-03-26T11:03:50.792Z,0.80
2019-03-26T11:06:16.725Z,0.90
2019-03-26T11:08:45.076Z,1.13
2019-03-26T11:11:10.650Z,1.93
2019-03-26T11:13:36.615Z,1.30
2019-03-26T11:16:02.654Z,0.83
2019-03-26T11:18:28.613Z,1.37
2019-03-26T11:21:02.294Z,1.17
2019-03-26T11:23:25.273Z,1.23
2019-03-26T11:25:51.298Z,0.90
2019-03-26T11:28:17.243Z,1.10
2019-03-26T11:30:43.204Z,1.27
2019-03-26T11:33:09.315Z,0.90
2019-03-26T11:35:35.277Z,1.07
2019-03-26T11:38:01.214Z,1.17
2019-03-26T11:40:27.155Z,1.40
2019-03-26T11:42:53.099Z,0.90
2019-03-26T11:45:19.055Z,0.83
2019-03-26T11:47:45.012Z,0.97
2019-03-26T11:50:10.961Z,0.90
2019-03-26T11:52:36.917Z,1.40
2019-03-26T11:55:02.893Z,0.80
2019-03-26T11:57:28.961Z,1.20
2019-03-26T11:59:54.925Z,0.83
2019-03-26T12:02:21.000Z,0.80
2019-03-26T12:04:47.238Z,0.83
2019-03-26T12:07:13.395Z,1.23
2019-03-26T12:09:46.077Z,1.03
2019-03-26T12:12:07.297Z,1.20
2019-03-26T12:14:33.377Z,0.80
2019-03-26T12:16:59.327Z,0.80
2019-03-26T12:19:25.295Z,1.00
2019-03-26T12:21:51.241Z,0.70
2019-03-26T12:24:17.202Z,1.37
2019-03-26T12:26:43.164Z,0.90
2019-03-26T12:29:09.109Z,1.23
2019-03-26T12:31:35.175Z,0.73
2019-03-26T12:34:01.158Z,0.80
2019-03-26T12:36:39.401Z,0.73
2019-03-26T12:38:54.980Z,0.77
2019-03-26T12:41:20.945Z,0.70
2019-03-26T12:43:46.884Z,0.70
2019-03-26T12:46:12.881Z,1.07
2019-03-26T12:48:38.847Z,0.73
2019-03-26T12:51:04.992Z,1.20
2019-03-26T12:53:31.127Z,0.90
2019-03-26T12:55:57.077Z,0.80
2019-03-26T12:58:31.856Z,0.73
2019-03-26T13:00:50.876Z,0.93
2019-03-26T13:03:16.815Z,0.70
2019-03-26T13:05:42.748Z,0.90
2019-03-26T13:08:08.701Z,0.80
2019-03-26T13:10:34.646Z,1.07
2019-03-26T13:13:00.672Z,0.93
2019-03-26T13:15:26.732Z,0.83
2019-03-26T13:17:52.697Z,1.10
2019-03-26T13:20:18.688Z,0.70
2019-03-26T13:22:44.650Z,0.80
2019-03-26T13:25:10.713Z,1.40
2019-03-26T13:27:36.676Z,0.97
2019-03-26T13:30:02.642Z,0.77
2019-03-26T13:32:28.646Z,1.13
2019-03-26T13:34:54.684Z,0.90
2019-03-26T13:37:21.912Z,0.80
2019-03-26T13:39:48.162Z,1.23
2019-03-26T13:42:14.082Z,0.90
2019-03-26T13:44:40.041Z,0.90
2019-03-26T13:47:05.994Z,0.73
2019-03-26T13:49:32.038Z,0.87
2019-03-26T13:51:58.000Z,0.90
2019-03-26T13:54:23.964Z,0.67
2019-03-26T13:56:49.970Z,0.90
2019-03-26T13:59:15.929Z,0.83
2019-03-26T14:01:41.878Z,0.87
2019-03-26T14:04:07.847Z,0.80
2019-03-26T14:06:34.015Z,0.90
2019-03-26T14:09:00.026Z,0.90
2019-03-26T14:11:26.075Z,1.07
2019-03-26T14:13:52.038Z,0.67
2019-03-26T14:16:17.985Z,1.10
2019-03-26T14:18:43.924Z,0.60
2019-03-26T14:21:09.965Z,0.70
2019-03-26T14:23:35.919Z,1.00
2019-03-26T14:26:01.858Z,0.90
2019-03-26T14:28:27.812Z,0.77
2019-03-26T14:30:53.764Z,0.50
2019-03-26T14:33:20.134Z,0.70
2019-03-26T14:35:46.124Z,0.60
2019-03-26T14:38:12.075Z,0.63
2019-03-26T14:40:38.982Z,1.27
2019-03-26T14:43:05.044Z,0.90
2019-03-26T14:45:31.008Z,0.60
2019-03-26T14:47:56.959Z,1.63
2019-03-26T14:50:22.893Z,1.30
2019-03-26T14:52:48.855Z,0.80
2019-03-26T14:55:14.806Z,0.60
2019-03-26T14:57:40.778Z,0.87
2019-03-26T15:00:06.926Z,1.57
2019-03-26T15:02:32.906Z,0.60
2019-03-26T15:04:58.950Z,0.67
2019-03-26T15:07:24.909Z,0.70
2019-03-26T15:09:50.953Z,0.77
2019-03-26T15:12:16.897Z,0.80
2019-03-26T15:14:42.863Z,0.50
2019-03-26T15:17:08.802Z,0.50
2019-03-26T15:19:34.741Z,1.23
2019-03-26T15:22:00.682Z,0.77
2019-03-26T15:24:26.651Z,0.63
2019-03-26T15:26:52.597Z,0.80
2019-03-26T15:29:18.579Z,0.60
2019-03-26T15:31:44.517Z,1.47
2019-03-26T15:34:10.503Z,0.70
2019-03-26T15:36:36.437Z,0.90
2019-03-26T15:39:04.124Z,0.60
2019-03-26T15:41:30.542Z,1.00
2019-03-26T15:43:56.639Z,0.57
2019-03-26T15:46:22.584Z,0.70
2019-03-26T15:48:48.541Z,0.67
2019-03-26T15:51:14.571Z,1.13
2019-03-26T15:53:40.625Z,0.70
2019-03-26T15:56:06.608Z,0.70
2019-03-26T15:58:32.571Z,0.60
2019-03-26T16:00:58.541Z,0.70
2019-03-26T16:03:24.704Z,0.70
2019-03-26T16:05:50.681Z,0.80
2019-03-26T16:08:16.620Z,0.90
2019-03-26T16:10:42.562Z,0.77
2019-03-26T16:13:11.163Z,0.97
2019-03-26T16:15:44.167Z,0.90
2019-03-26T16:18:05.005Z,1.23
2019-03-26T16:20:30.965Z,0.67
2019-03-26T16:22:56.941Z,0.73
2019-03-26T16:25:22.915Z,0.60
2019-03-26T16:27:48.885Z,0.70
2019-03-26T16:30:16.503Z,0.60
2019-03-26T16:32:42.579Z,0.80
2019-03-26T16:35:08.553Z,0.97
2019-03-26T16:37:35.697Z,0.63
2019-03-26T16:40:01.730Z,0.70
2019-03-26T16:42:27.695Z,0.93
2019-03-26T16:44:53.661Z,0.70
2019-03-26T16:47:19.763Z,0.53
2019-03-26T16:49:45.705Z,0.80
2019-03-26T16:52:11.694Z,1.00
2019-03-26T16:54:37.744Z,0.80
2019-03-26T16:57:03.700Z,0.70
2019-03-26T16:59:29.716Z,0.70
2019-03-26T17:01:55.674Z,0.60
2019-03-26T17:04:21.723Z,0.90
2019-03-26T17:06:47.665Z,0.83
2019-03-26T17:09:13.610Z,0.90
2019-03-26T17:11:39.562Z,0.80
2019-03-26T17:14:05.519Z,0.70
2019-03-26T17:16:31.474Z,0.60
2019-03-26T17:18:57.725Z,1.10
2019-03-26T17:21:24.163Z,0.70
2019-03-26T17:23:50.112Z,0.83
2019-03-26T17:26:16.072Z,1.27
2019-03-26T17:28:42.094Z,0.70
2019-03-26T17:31:08.056Z,0.60
2019-03-26T17:33:34.036Z,0.77
2019-03-26T17:36:00.118Z,0.70
2019-03-26T17:38:26.070Z,0.87
2019-03-26T17:40:52.072Z,0.73
2019-03-26T17:43:18.763Z,1.00
2019-03-26T17:45:44.743Z,0.87
2019-03-26T17:48:10.896Z,0.80
2019-03-26T17:50:36.942Z,1.10
2019-03-26T17:53:02.913Z,0.80
2019-03-26T17:55:28.978Z,0.83
2019-03-26T17:57:55.376Z,0.80
2019-03-26T18:00:21.340Z,1.43
2019-03-26T18:02:47.290Z,0.97
2019-03-26T18:05:13.234Z,1.47
2019-03-26T18:07:39.208Z,1.33
2019-03-26T18:10:05.354Z,1.80
2019-03-26T18:12:31.499Z,1.47
2019-03-26T18:14:57.510Z,1.23
2019-03-26T18:17:23.552Z,1.30
2019-03-26T18:19:49.521Z,1.80
2019-03-26T18:22:15.459Z,1.67
2019-03-26T18:24:41.427Z,1.80
2019-03-26T18:27:07.390Z,1.60
2019-03-26T18:29:33.348Z,1.60
2019-03-26T18:31:59.318Z,1.10
2019-03-26T18:34:25.290Z,1.30
2019-03-26T18:36:51.404Z,1.73
2019-03-26T18:39:17.427Z,2.17
2019-03-26T18:41:43.397Z,1.50
2019-03-26T18:44:09.370Z,0.97
2019-03-26T18:46:35.315Z,2.00
2019-03-26T18:49:01.266Z,1.73
2019-03-26T18:51:27.267Z,1.70
2019-03-26T18:53:53.243Z,2.03
2019-03-26T18:56:19.202Z,1.57
2019-03-26T18:58:45.169Z,1.30
2019-03-26T19:01:11.105Z,1.30
2019-03-26T19:03:37.089Z,1.10
2019-03-26T19:06:03.044Z,1.80
2019-03-26T19:08:29.004Z,1.40
2019-03-26T19:10:55.038Z,1.03
2019-03-26T19:13:20.978Z,2.47
2019-03-26T19:15:46.920Z,1.70
2019-03-26T19:18:12.878Z,1.47
2019-03-26T19:20:38.855Z,1.33
2019-03-26T19:23:04.803Z,1.03
2019-03-26T19:25:31.166Z,1.23
2019-03-26T19:27:57.142Z,1.50
2019-03-26T19:30:23.191Z,1.40
2019-03-26T19:32:49.152Z,1.80
2019-03-26T19:35:15.225Z,1.10
2019-03-26T19:37:41.205Z,1.23
2019-03-26T19:40:07.268Z,1.20
2019-03-26T19:42:33.349Z,1.40
2019-03-26T19:44:59.315Z,1.70
2019-03-26T19:47:25.359Z,1.57
2019-03-26T19:49:51.329Z,1.23
2019-03-26T19:52:17.323Z,1.67
2019-03-26T19:54:43.373Z,1.10
2019-03-26T19:57:09.330Z,1.03
2019-03-26T19:59:35.387Z,1.30
2019-03-26T20:02:01.349Z,1.63
2019-03-26T20:04:27.353Z,1.10
2019-03-26T20:06:53.313Z,1.37
2019-03-26T20:09:19.379Z,1.97
2019-03-26T20:11:45.424Z,0.97
2019-03-26T20:14:11.363Z,1.87
2019-03-26T20:16:42.191Z,1.40
2019-03-26T20:19:05.430Z,1.33
2019-03-26T20:21:31.485Z,1.23
2019-03-26T20:23:57.667Z,1.30
2019-03-26T20:26:23.783Z,1.20
2019-03-26T20:28:51.908Z,1.27
2019-03-26T20:31:18.007Z,1.10
2019-03-26T20:33:45.261Z,1.13
2019-03-26T20:36:11.413Z,0.87
2019-03-26T20:38:37.441Z,1.73
2019-03-26T20:41:03.547Z,1.87
2019-03-26T20:43:37.102Z,1.40
2019-03-26T20:45:57.530Z,1.43
2019-03-26T20:48:23.588Z,1.57
2019-03-26T20:50:50.052Z,2.00
2019-03-26T20:53:16.065Z,1.10
2019-03-26T20:55:53.600Z,0.97
2019-03-26T20:58:11.961Z,1.27
2019-03-26T21:00:38.146Z,1.47
2019-03-26T21:03:04.348Z,1.00
2019-03-26T21:05:30.673Z,0.90
2019-03-26T21:07:58.062Z,1.17
2019-03-26T21:10:24.131Z,1.50
2019-03-26T21:12:51.585Z,1.23
2019-03-26T21:15:17.719Z,1.43
2019-03-26T21:17:43.821Z,1.17
2019-03-26T21:20:14.978Z,1.33
2019-03-26T21:22:40.917Z,1.17
2019-03-26T21:25:07.137Z,1.20
2019-03-26T21:27:33.252Z,1.70
2019-03-26T21:30:10.054Z,1.10
2019-03-26T21:32:27.173Z,1.00
2019-03-26T21:34:55.233Z,1.23
2019-03-26T21:37:21.269Z,1.00
2019-03-26T21:39:47.332Z,1.73
2019-03-26T21:42:13.307Z,1.17
2019-03-26T21:44:40.347Z,1.33
2019-03-26T21:47:06.380Z,1.87
2019-03-26T21:49:32.328Z,1.43
2019-03-26T21:51:58.313Z,1.40
2019-03-26T21:54:24.362Z,1.27
2019-03-26T21:56:50.316Z,1.17
2019-03-26T21:59:16.280Z,1.00
2019-03-26T22:01:42.238Z,1.60
2019-03-26T22:04:08.294Z,1.30
2019-03-26T22:06:34.277Z,2.10
2019-03-26T22:09:00.340Z,1.97
2019-03-26T22:11:26.292Z,1.37
2019-03-26T22:13:52.244Z,1.80
2019-03-26T22:16:18.244Z,0.93
2019-03-26T22:18:44.176Z,1.40
2019-03-26T22:21:10.159Z,1.47
2019-03-26T22:23:36.104Z,1.60
2019-03-26T22:26:02.130Z,1.57
2019-03-26T22:28:28.219Z,1.57
2019-03-26T22:30:54.257Z,1.53
2019-03-26T22:33:20.224Z,1.50
2019-03-26T22:35:46.206Z,1.13
2019-03-26T22:38:12.150Z,1.30
2019-03-26T22:40:38.090Z,1.20
2019-03-26T22:43:04.044Z,1.23
2019-03-26T22:45:29.989Z,1.53
2019-03-26T22:47:55.925Z,1.40
2019-03-26T22:50:21.862Z,1.90
2019-03-26T22:52:47.833Z,1.60
2019-03-26T22:55:13.910Z,1.53
2019-03-26T22:57:39.934Z,1.10
2019-03-26T23:00:06.184Z,1.07
2019-03-26T23:02:32.142Z,1.53
2019-03-26T23:04:58.109Z,1.30
2019-03-26T23:07:24.043Z,1.20
2019-03-26T23:09:50.018Z,1.47
2019-03-26T23:12:15.954Z,1.70
2019-03-26T23:14:45.449Z,1.40
2019-03-26T23:17:09.754Z,1.40
2019-03-26T23:19:35.750Z,1.70
2019-03-26T23:22:01.698Z,1.50
2019-03-26T23:24:27.671Z,1.73
2019-03-26T23:26:53.615Z,1.67
2019-03-26T23:29:19.591Z,1.27
2019-03-26T23:31:45.545Z,1.40
2019-03-26T23:34:11.500Z,1.40
2019-03-26T23:36:37.445Z,1.53
2019-03-26T23:39:03.902Z,1.57
2019-03-26T23:41:29.927Z,1.10
2019-03-26T23:43:55.876Z,1.13
2019-03-26T23:46:21.829Z,2.30
2019-03-26T23:48:47.759Z,1.23
2019-03-26T23:51:13.715Z,1.87
2019-03-26T23:53:39.675Z,1.20
2019-03-26T23:56:05.622Z,1.40
2019-03-26T23:58:31.562Z,1.53
